createdAt,value
2023-07-19T00:04:44.338Z,1.42
2023-07-19T00:07:26.281Z,1.55
2023-07-19T00:10:06.547Z,1.58
2023-07-19T00:12:55.992Z,1.60
2023-07-19T00:29:07.965Z,1.50
2023-07-19T00:35:57.453Z,2.00
2023-07-19T00:38:49.792Z,1.70
2023-07-19T00:42:32.262Z,1.67
2023-07-19T00:45:12.385Z,1.70
2023-07-19T00:55:26.296Z,1.80
2023-07-19T00:58:19.509Z,2.53
2023-07-19T01:01:24.038Z,1.85
2023-07-19T01:10:32.293Z,1.48
2023-07-19T01:13:28.253Z,1.70
2023-07-19T01:16:38.562Z,1.73
2023-07-19T01:20:05.446Z,1.70
2023-07-19T01:22:53.832Z,1.73
2023-07-19T01:25:53.079Z,1.80
2023-07-19T01:28:44.935Z,1.77
2023-07-19T01:31:53.473Z,1.58
2023-07-19T01:35:29.083Z,1.60
2023-07-19T01:41:40.736Z,1.80
2023-07-19T01:49:00.836Z,1.88
2023-07-19T01:52:25.710Z,1.70
2023-07-19T01:55:22.623Z,1.73
2023-07-19T01:58:18.936Z,1.80
2023-07-19T02:01:42.517Z,1.58
2023-07-19T02:05:16.996Z,1.48
2023-07-19T02:07:45.584Z,1.70
2023-07-19T02:14:28.198Z,2.00
2023-07-19T02:17:25.718Z,1.70
2023-07-19T02:20:29.187Z,1.40
2023-07-19T02:26:27.415Z,1.67
2023-07-19T02:29:22.614Z,1.52
2023-07-19T02:32:06.528Z,1.52
2023-07-19T02:35:00.591Z,1.77
2023-07-19T02:37:49.856Z,1.40
2023-07-19T02:40:36.125Z,2.00
2023-07-19T02:46:37.392Z,1.98
2023-07-19T02:52:51.024Z,1.75
2023-07-19T02:56:03.100Z,1.90
2023-07-19T02:58:54.317Z,1.63
2023-07-19T03:02:06.244Z,1.60
2023-07-19T03:04:49.626Z,1.95
2023-07-19T03:07:42.114Z,2.00
2023-07-19T03:10:51.966Z,2.00
2023-07-19T03:13:43.573Z,1.73
2023-07-19T03:16:42.992Z,2.10
2023-07-19T03:19:48.011Z,1.80
2023-07-19T03:25:56.378Z,2.10
2023-07-19T03:28:56.805Z,1.80
2023-07-19T03:31:39.348Z,1.70
2023-07-19T03:34:15.488Z,1.90
2023-07-19T03:37:02.694Z,2.17
2023-07-19T03:40:01.192Z,2.00
2023-07-19T03:42:52.050Z,2.05
2023-07-19T03:45:21.141Z,1.88
2023-07-19T03:47:50.845Z,2.42
2023-07-19T03:50:38.899Z,2.15
2023-07-19T03:53:38.245Z,2.25
2023-07-19T03:56:29.347Z,2.10
2023-07-19T03:59:08.665Z,2.10
2023-07-19T04:01:44.408Z,2.17
2023-07-19T04:04:26.134Z,1.85
2023-07-19T04:07:07.186Z,2.20
2023-07-19T04:09:43.125Z,1.80
2023-07-19T04:12:31.501Z,2.10
2023-07-19T04:15:09.732Z,2.10
2023-07-19T04:17:50.470Z,2.38
2023-07-19T04:23:52.052Z,2.05
2023-07-19T04:27:45.200Z,2.00
2023-07-19T04:31:07.739Z,2.00
2023-07-19T04:34:15.940Z,1.92
2023-07-19T04:36:49.779Z,2.17
2023-07-19T04:39:36.383Z,1.77
2023-07-19T04:42:12.418Z,2.00
2023-07-19T04:44:40.318Z,2.20
2023-07-19T04:47:10.253Z,1.98
2023-07-19T04:49:37.270Z,1.80
2023-07-19T04:52:04.282Z,2.20
2023-07-19T04:54:32.741Z,1.85
2023-07-19T04:57:00.868Z,2.20
2023-07-19T04:59:28.020Z,2.33
2023-07-19T05:01:55.235Z,2.05
2023-07-19T05:04:22.401Z,2.00
2023-07-19T05:09:20.336Z,1.98
2023-07-19T05:11:50.186Z,1.90
2023-07-19T05:14:29.433Z,2.15
2023-07-19T05:17:01.603Z,2.22
2023-07-19T05:19:33.363Z,2.20
2023-07-19T05:22:22.692Z,2.50
2023-07-19T05:24:58.432Z,2.08
2023-07-19T05:27:45.502Z,2.20
2023-07-19T05:30:25.715Z,2.13
2023-07-19T05:33:06.461Z,2.08
2023-07-19T05:35:47.274Z,2.10
2023-07-19T05:38:24.369Z,2.38
2023-07-19T05:41:18.289Z,2.28
2023-07-19T05:44:05.531Z,2.60
2023-07-19T05:46:46.154Z,2.30
2023-07-19T05:50:10.178Z,1.98
2023-07-19T05:53:12.107Z,2.50
2023-07-19T05:55:44.876Z,2.20
2023-07-19T05:58:21.326Z,2.50
2023-07-19T06:01:20.227Z,2.45
2023-07-19T06:04:06.994Z,2.35
2023-07-19T06:06:51.806Z,2.45
2023-07-19T06:10:09.498Z,2.50
2023-07-19T06:13:15.144Z,2.00
2023-07-19T06:16:09.583Z,2.20
2023-07-19T06:19:10.116Z,2.08
2023-07-19T06:22:20.741Z,2.40
2023-07-19T06:25:22.974Z,2.00
2023-07-19T06:27:56.148Z,2.25
2023-07-19T06:30:38.765Z,2.38
2023-07-19T06:33:31.256Z,2.20
2023-07-19T06:36:34.321Z,2.00
2023-07-19T06:39:12.710Z,2.25
2023-07-19T06:42:06.288Z,1.70
2023-07-19T06:45:06.815Z,1.73
2023-07-19T06:50:58.715Z,1.80
2023-07-19T06:57:01.030Z,1.75
2023-07-19T07:00:17.224Z,1.70
2023-07-19T07:02:47.847Z,1.90
2023-07-19T07:05:27.343Z,1.60
2023-07-19T07:08:07.579Z,1.55
2023-07-19T07:10:53.162Z,1.80
2023-07-19T07:13:32.930Z,2.00
2023-07-19T07:16:09.277Z,1.90
2023-07-19T07:18:43.385Z,1.50
2023-07-19T07:21:20.938Z,1.50
2023-07-19T07:23:54.169Z,1.70
2023-07-19T07:29:07.197Z,1.67
2023-07-19T07:31:49.540Z,1.77
2023-07-19T07:34:21.356Z,1.70
2023-07-19T07:37:07.746Z,1.52
2023-07-19T07:39:49.770Z,1.63
2023-07-19T07:42:23.390Z,1.90
2023-07-19T07:44:54.319Z,2.05
2023-07-19T07:47:24.876Z,2.30
2023-07-19T07:49:52.917Z,1.70
2023-07-19T07:52:20.133Z,1.50
2023-07-19T07:54:49.782Z,1.60
2023-07-19T07:57:17.832Z,1.85
2023-07-19T07:59:47.135Z,2.20
2023-07-19T08:02:14.264Z,2.50
2023-07-19T08:07:11.766Z,2.78
2023-07-19T08:09:45.186Z,2.10
2023-07-19T08:12:15.405Z,2.80
2023-07-19T08:14:45.351Z,2.30
2023-07-19T08:17:12.846Z,1.63
2023-07-19T08:19:43.148Z,2.00
2023-07-19T08:24:41.587Z,1.67
2023-07-19T08:27:09.638Z,1.70
2023-07-19T08:29:36.686Z,1.98
2023-07-19T08:32:04.806Z,2.58
2023-07-19T08:34:31.783Z,2.63
2023-07-19T08:36:58.643Z,2.30
2023-07-19T08:39:25.802Z,2.03
2023-07-19T08:44:20.525Z,1.77
2023-07-19T08:46:47.832Z,2.42
2023-07-19T08:49:18.775Z,2.17
2023-07-19T08:51:47.797Z,2.20
2023-07-19T08:54:15.335Z,2.65
2023-07-19T08:56:42.426Z,3.25
2023-07-19T08:59:10.213Z,3.00
2023-07-19T09:01:36.978Z,2.00
2023-07-19T09:04:13.223Z,2.10
2023-07-19T09:06:41.061Z,2.60
2023-07-19T09:09:15.461Z,2.22
2023-07-19T09:11:50.868Z,2.72
2023-07-19T09:14:35.769Z,2.65
2023-07-19T09:17:11.521Z,2.15
2023-07-19T09:19:42.718Z,1.75
2023-07-19T09:22:16.258Z,1.90
2023-07-19T09:25:02.979Z,2.00
2023-07-19T09:27:30.813Z,2.05
2023-07-19T09:29:57.924Z,2.00
2023-07-19T09:32:25.837Z,2.00
2023-07-19T09:34:56.890Z,2.22
2023-07-19T09:37:24.564Z,1.98
2023-07-19T09:39:51.660Z,1.90
2023-07-19T09:42:20.116Z,1.65
2023-07-19T09:44:47.627Z,2.30
2023-07-19T09:47:28.428Z,2.00
2023-07-19T09:49:56.433Z,1.73
2023-07-19T09:52:28.160Z,2.85
2023-07-19T09:54:55.326Z,2.80
2023-07-19T09:59:51.038Z,2.60
2023-07-19T10:02:18.340Z,3.05
2023-07-19T10:04:45.245Z,2.47
2023-07-19T10:07:12.984Z,1.85
2023-07-19T10:09:44.533Z,2.22
2023-07-19T10:12:17.374Z,2.60
2023-07-19T10:14:57.514Z,2.10
2023-07-19T10:17:25.812Z,2.60
2023-07-19T10:20:05.913Z,1.92
2023-07-19T10:22:49.371Z,1.92
2023-07-19T10:25:18.193Z,2.08
2023-07-19T10:27:55.593Z,2.13
2023-07-19T10:30:22.551Z,1.98
2023-07-19T10:32:52.323Z,2.08
2023-07-19T10:35:31.896Z,2.20
2023-07-19T10:38:01.017Z,2.90
2023-07-19T10:40:28.268Z,2.20
2023-07-19T10:42:55.133Z,2.70
2023-07-19T10:45:26.433Z,2.10
2023-07-19T10:47:53.460Z,2.10
2023-07-19T10:50:24.974Z,2.20
2023-07-19T10:52:51.740Z,1.92
2023-07-19T10:55:42.767Z,2.00
2023-07-19T10:58:06.413Z,1.92
2023-07-19T11:00:35.463Z,2.00
2023-07-19T11:03:02.685Z,2.13
2023-07-19T11:05:29.773Z,2.10
2023-07-19T11:07:56.693Z,2.22
2023-07-19T11:10:23.555Z,2.10
2023-07-19T11:12:50.463Z,2.40
2023-07-19T11:15:21.132Z,2.40
2023-07-19T11:17:49.486Z,1.88
2023-07-19T11:20:28.351Z,2.58
2023-07-19T11:23:03.845Z,2.58
2023-07-19T11:25:30.744Z,2.03
2023-07-19T11:27:57.951Z,2.60
2023-07-19T11:30:38.431Z,2.13
2023-07-19T11:33:09.996Z,1.65
2023-07-19T11:35:39.176Z,2.00
2023-07-19T11:38:09.530Z,2.05
2023-07-19T11:40:42.403Z,2.00
2023-07-19T11:43:10.765Z,2.10
2023-07-19T11:45:37.698Z,2.30
2023-07-19T11:48:17.436Z,2.10
2023-07-19T11:50:47.432Z,2.38
2023-07-19T11:53:16.542Z,2.20
2023-07-19T11:55:45.870Z,2.05
2023-07-19T11:58:14.178Z,1.98
2023-07-19T12:03:48.307Z,2.25
2023-07-19T12:09:05.444Z,2.10
2023-07-19T12:11:53.630Z,2.00
2023-07-19T12:14:31.226Z,1.77
2023-07-19T12:17:09.140Z,1.85
2023-07-19T12:19:35.777Z,1.90
2023-07-19T12:24:35.258Z,1.80
2023-07-19T12:27:03.045Z,1.60
2023-07-19T12:29:38.607Z,1.88
2023-07-19T12:32:16.227Z,1.77
2023-07-19T12:34:43.942Z,1.70
2023-07-19T12:37:10.561Z,1.67
2023-07-19T12:39:37.312Z,2.10
2023-07-19T12:42:04.666Z,1.85
2023-07-19T12:44:31.333Z,1.90
2023-07-19T12:46:58.254Z,1.65
2023-07-19T12:49:25.110Z,1.95
2023-07-19T12:51:51.822Z,1.77
2023-07-19T12:54:18.721Z,1.75
2023-07-19T12:56:45.352Z,1.73
2023-07-19T12:59:12.049Z,1.70
2023-07-19T13:01:39.125Z,1.90
2023-07-19T13:04:06.512Z,1.80
2023-07-19T13:06:34.419Z,1.85
2023-07-19T13:09:05.050Z,1.73
2023-07-19T13:11:32.938Z,1.75
2023-07-19T13:13:59.789Z,1.70
2023-07-19T13:16:27.026Z,1.60
2023-07-19T13:21:20.146Z,1.88
2023-07-19T13:23:47.142Z,1.88
2023-07-19T13:26:13.864Z,1.70
2023-07-19T13:28:41.685Z,1.65
2023-07-19T13:31:09.021Z,1.60
2023-07-19T13:33:35.730Z,1.70
2023-07-19T13:36:02.269Z,1.48
2023-07-19T13:38:28.989Z,1.70
2023-07-19T13:40:55.753Z,1.60
2023-07-19T13:43:23.470Z,1.45
2023-07-19T13:45:50.555Z,1.58
2023-07-19T13:48:17.723Z,1.40
2023-07-19T13:50:44.927Z,1.60
2023-07-19T13:55:41.014Z,1.40
2023-07-19T13:58:08.564Z,1.25
2023-07-19T14:00:38.469Z,1.60
2023-07-19T14:03:05.815Z,1.77
2023-07-19T14:07:59.893Z,1.10
2023-07-19T14:10:29.139Z,1.50
2023-07-19T14:12:59.620Z,1.40
2023-07-19T14:15:27.180Z,1.40
2023-07-19T14:17:54.334Z,1.60
2023-07-19T14:22:50.010Z,1.60
2023-07-19T14:25:17.747Z,1.40
2023-07-19T14:27:44.516Z,1.40
2023-07-19T14:30:11.200Z,1.60
2023-07-19T14:32:38.395Z,1.77
2023-07-19T14:37:39.287Z,1.30
2023-07-19T14:40:07.158Z,1.50
2023-07-19T14:42:33.888Z,1.75
2023-07-19T14:45:00.448Z,1.60
2023-07-19T14:47:27.253Z,1.73
2023-07-19T14:49:53.930Z,1.60
2023-07-19T14:52:21.292Z,1.73
2023-07-19T14:57:14.692Z,1.35
2023-07-19T14:59:44.000Z,1.60
2023-07-19T15:04:44.554Z,1.20
2023-07-19T15:07:11.084Z,1.25
2023-07-19T15:09:38.017Z,1.60
2023-07-19T15:12:04.797Z,1.63
2023-07-19T15:14:32.592Z,1.60
2023-07-19T15:17:00.724Z,1.40
2023-07-19T15:19:27.775Z,1.73
2023-07-19T15:21:54.982Z,1.67
2023-07-19T15:26:48.326Z,1.58
2023-07-19T15:29:15.659Z,1.50
2023-07-19T15:31:42.224Z,1.60
2023-07-19T15:34:11.897Z,1.55
2023-07-19T15:36:39.738Z,1.70
2023-07-19T15:39:07.866Z,1.60
2023-07-19T15:41:34.885Z,1.50
2023-07-19T15:44:01.550Z,1.50
2023-07-19T15:46:28.101Z,2.00
2023-07-19T15:48:54.835Z,1.70
2023-07-19T15:51:21.674Z,1.50
2023-07-19T15:53:48.557Z,1.50
2023-07-19T15:56:15.352Z,1.70
2023-07-19T15:58:41.832Z,1.77
2023-07-19T16:01:08.940Z,1.70
2023-07-19T16:03:36.584Z,1.63
2023-07-19T16:06:04.300Z,2.03
2023-07-19T16:08:31.630Z,2.10
2023-07-19T16:10:58.794Z,1.50
2023-07-19T16:13:25.461Z,1.67
2023-07-19T16:15:52.267Z,1.60
2023-07-19T16:18:18.936Z,1.52
2023-07-19T16:20:45.960Z,1.50
2023-07-19T16:23:12.530Z,1.33
2023-07-19T16:25:39.194Z,1.55
2023-07-19T16:28:05.815Z,1.50
2023-07-19T16:30:32.735Z,1.90
2023-07-19T16:32:59.534Z,1.60
2023-07-19T16:35:26.105Z,1.90
2023-07-19T16:37:54.555Z,1.73
2023-07-19T16:40:21.298Z,1.70
2023-07-19T16:42:48.148Z,1.50
2023-07-19T16:45:15.046Z,1.80
2023-07-19T16:47:41.694Z,1.60
2023-07-19T16:50:14.060Z,1.70
2023-07-19T16:52:41.473Z,2.10
2023-07-19T16:55:11.698Z,1.80
2023-07-19T16:57:38.747Z,1.75
2023-07-19T17:00:16.607Z,1.90
2023-07-19T17:02:44.724Z,1.90
2023-07-19T17:05:11.362Z,1.90
2023-07-19T17:07:38.008Z,1.77
2023-07-19T17:10:04.904Z,2.00
2023-07-19T17:12:31.532Z,2.13
2023-07-19T17:14:58.464Z,2.10
2023-07-19T17:17:25.114Z,1.80
2023-07-19T17:19:51.756Z,2.10
2023-07-19T17:22:18.361Z,1.60
2023-07-19T17:24:44.947Z,1.60
2023-07-19T17:27:11.480Z,2.17
2023-07-19T17:29:38.300Z,1.80
2023-07-19T17:32:05.127Z,1.75
2023-07-19T17:34:31.719Z,1.95
2023-07-19T17:36:58.387Z,1.80
2023-07-19T17:39:24.961Z,1.90
2023-07-19T17:41:52.189Z,1.90
2023-07-19T17:44:18.736Z,1.70
2023-07-19T17:46:45.390Z,1.75
2023-07-19T17:49:12.613Z,2.08
2023-07-19T17:51:39.245Z,2.00
2023-07-19T17:54:05.893Z,1.83
2023-07-19T17:56:32.550Z,1.83
2023-07-19T17:58:59.377Z,1.73
2023-07-19T18:01:26.215Z,1.83
2023-07-19T18:03:53.325Z,1.42
2023-07-19T18:06:20.452Z,1.73
2023-07-19T18:08:47.247Z,1.73
2023-07-19T18:11:16.658Z,1.88
2023-07-19T18:13:43.340Z,1.83
2023-07-19T18:16:09.963Z,1.77
2023-07-19T18:18:36.701Z,1.90
2023-07-19T18:21:06.205Z,1.80
2023-07-19T18:23:32.882Z,2.00
2023-07-19T18:26:00.330Z,1.77
2023-07-19T18:28:29.422Z,1.88
2023-07-19T18:30:56.484Z,1.60
2023-07-19T18:33:23.107Z,2.00
2023-07-19T18:35:50.730Z,1.60
2023-07-19T18:38:17.440Z,1.60
2023-07-19T18:40:48.638Z,1.67
2023-07-19T18:43:15.417Z,1.85
2023-07-19T18:45:42.008Z,1.90
2023-07-19T18:48:08.688Z,1.90
2023-07-19T18:50:38.852Z,1.90
2023-07-19T18:53:05.851Z,1.80
2023-07-19T18:55:32.388Z,2.00
2023-07-19T18:57:59.467Z,1.88
2023-07-19T19:00:27.724Z,1.63
2023-07-19T19:02:54.883Z,1.67
2023-07-19T19:07:51.805Z,2.00
2023-07-19T19:10:20.977Z,1.75
2023-07-19T19:12:48.514Z,1.75
2023-07-19T19:15:15.358Z,2.20
2023-07-19T19:17:42.259Z,1.83
2023-07-19T19:20:09.797Z,2.03
2023-07-19T19:22:38.265Z,1.83
2023-07-19T19:25:08.054Z,1.80
2023-07-19T19:27:35.378Z,1.85
2023-07-19T19:30:03.514Z,2.15
2023-07-19T19:32:30.666Z,1.95
2023-07-19T19:37:26.952Z,1.83
2023-07-19T19:39:54.915Z,2.00
2023-07-19T19:42:21.604Z,1.95
2023-07-19T19:44:48.163Z,2.03
2023-07-19T19:47:14.905Z,2.15
2023-07-19T19:49:41.425Z,2.22
2023-07-19T19:52:08.278Z,2.03
2023-07-19T19:54:34.882Z,2.05
2023-07-19T19:57:07.931Z,2.20
2023-07-19T19:59:35.731Z,2.20
2023-07-19T20:04:32.002Z,2.33
2023-07-19T20:06:58.948Z,2.30
2023-07-19T20:09:31.173Z,2.30
2023-07-19T20:11:59.482Z,1.88
2023-07-19T20:14:26.779Z,1.98
2023-07-19T20:16:53.578Z,2.38
2023-07-19T20:21:50.593Z,2.10
2023-07-19T20:26:45.524Z,2.10
2023-07-19T20:41:40.900Z,2.00
2023-07-19T20:44:07.476Z,2.10
2023-07-19T20:46:35.236Z,1.75
2023-07-19T20:49:06.946Z,2.20
2023-07-19T20:51:33.765Z,2.00
2023-07-19T20:54:00.409Z,2.20
2023-07-19T20:56:26.937Z,2.35
2023-07-19T20:58:53.757Z,2.10
2023-07-19T21:01:20.778Z,2.33
2023-07-19T21:03:48.002Z,1.90
2023-07-19T21:06:14.576Z,2.20
2023-07-19T21:08:41.317Z,1.90
2023-07-19T21:11:07.988Z,2.10
2023-07-19T21:13:34.775Z,2.08
2023-07-19T21:16:01.498Z,2.10
2023-07-19T21:18:28.098Z,2.28
2023-07-19T21:20:54.896Z,2.30
2023-07-19T21:23:21.363Z,2.20
2023-07-19T21:25:48.025Z,2.67
2023-07-19T21:28:14.575Z,2.50
2023-07-19T21:30:41.420Z,2.40
2023-07-19T21:33:08.037Z,2.40
2023-07-19T21:35:34.608Z,2.20
2023-07-19T21:38:01.239Z,2.20
2023-07-19T21:40:28.147Z,2.50
2023-07-19T21:42:54.804Z,2.55
2023-07-19T21:45:21.399Z,2.20
2023-07-19T21:47:48.027Z,2.30
2023-07-19T21:50:14.662Z,2.40
2023-07-19T21:52:41.425Z,2.42
2023-07-19T21:55:08.449Z,2.33
2023-07-19T21:57:35.219Z,2.38
2023-07-19T22:00:02.212Z,2.45
2023-07-19T22:02:28.989Z,2.63
2023-07-19T22:04:56.632Z,2.30
2023-07-19T22:07:23.178Z,2.55
2023-07-19T22:09:49.804Z,2.10
2023-07-19T22:12:16.553Z,2.28
2023-07-19T22:14:48.037Z,2.50
2023-07-19T22:17:21.134Z,2.45
2023-07-19T22:19:47.945Z,2.30
2023-07-19T22:22:14.767Z,2.05
2023-07-19T22:24:41.638Z,2.40
2023-07-19T22:27:08.839Z,2.30
2023-07-19T22:32:03.081Z,2.50
2023-07-19T22:34:32.394Z,2.70
2023-07-19T22:36:59.298Z,2.30
2023-07-19T22:39:26.232Z,2.58
2023-07-19T22:41:53.320Z,2.42
2023-07-19T22:44:20.159Z,2.55
2023-07-19T22:46:47.883Z,2.20
2023-07-19T22:49:15.491Z,2.22
2023-07-19T22:51:42.447Z,2.80
2023-07-19T22:54:09.149Z,2.17
2023-07-19T22:56:36.181Z,2.10
2023-07-19T22:59:03.482Z,2.10
2023-07-19T23:03:57.040Z,2.22
2023-07-19T23:06:24.217Z,2.70
2023-07-19T23:08:51.446Z,2.10
2023-07-19T23:11:18.389Z,2.65
2023-07-19T23:13:46.323Z,2.53
2023-07-19T23:16:15.764Z,2.65
2023-07-19T23:18:42.811Z,2.63
2023-07-19T23:21:09.633Z,2.58
2023-07-19T23:23:36.513Z,2.33
2023-07-19T23:26:03.152Z,2.30
2023-07-19T23:28:30.674Z,2.60
2023-07-19T23:30:57.524Z,2.58
2023-07-19T23:33:24.234Z,2.20
2023-07-19T23:35:51.347Z,2.25
2023-07-19T23:38:18.112Z,1.90
2023-07-19T23:40:45.048Z,2.10
2023-07-19T23:43:11.809Z,2.10
2023-07-19T23:45:38.792Z,2.08
2023-07-19T23:48:05.889Z,1.83
2023-07-19T23:50:32.978Z,2.13
2023-07-19T23:52:59.708Z,1.80
2023-07-19T23:55:26.289Z,2.13
2023-07-19T23:57:53.139Z,1.70
